Time;durP1;ratioP1;P1;durP2;ratioP2;P2;SDS_P1;SDS_P2;PMS_P1;PMS_P2;Temp;Humidity;BMP_temperature;BMP_pressure;BME280_temperature;BME280_humidity;BME280_pressure;Samples;Min_cycle;Max_cycle;Signal;HPM_P1;HPM_P2
2022/03/26 00:01:04;;;;;;;72.25;35.88;;;;;;;5.87;90.92;103337.97;5062467;28;20057;-28
2022/03/26 00:03:33;;;;;;;68.38;34.15;;;;;;;5.84;91.06;103340.28;5059057;28;20048;-29
2022/03/26 00:06:01;;;;;;;67.70;34.30;;;;;;;5.81;91.22;103335.16;5060278;28;20040;-28
2022/03/26 00:08:29;;;;;;;78.32;39.05;;;;;;;5.80;91.17;103337.06;5065311;28;20033;-28
2022/03/26 00:10:57;;;;;;;68.57;33.50;;;;;;;5.77;91.48;103337.50;5063328;28;20075;-29
2022/03/26 00:13:25;;;;;;;72.65;35.60;;;;;;;5.75;91.91;103339.63;5065883;28;20071;-29
2022/03/26 00:15:54;;;;;;;71.78;35.25;;;;;;;5.74;91.84;103334.28;5064445;28;20037;-29
2022/03/26 00:18:22;;;;;;;73.90;36.55;;;;;;;5.73;92.11;103336.22;5064578;28;20056;-29
2022/03/26 00:20:49;;;;;;;82.50;42.08;;;;;;;5.70;92.07;103339.38;5047107;28;20029;-29
2022/03/26 00:23:17;;;;;;;69.05;35.10;;;;;;;5.69;92.36;103339.59;5064511;28;20074;-30
2022/03/26 00:25:45;;;;;;;75.28;38.78;;;;;;;5.66;92.60;103342.75;5065013;28;20052;-28
2022/03/26 00:28:13;;;;;;;74.70;37.85;;;;;;;5.63;92.93;103335.72;5062689;28;20489;-32
2022/03/26 00:30:41;;;;;;;69.45;34.70;;;;;;;5.62;93.16;103338.69;5065785;28;20074;-30
2022/03/26 00:33:11;;;;;;;70.65;34.25;;;;;;;5.59;93.06;103341.91;5060760;28;20114;-28
2022/03/26 00:35:38;;;;;;;69.78;33.60;;;;;;;5.55;93.16;103338.69;5065635;28;20095;-28
2022/03/26 00:38:06;;;;;;;77.75;38.28;;;;;;;5.53;93.46;103346.34;5060513;28;20049;-28
2022/03/26 00:40:35;;;;;;;95.57;47.22;;;;;;;5.51;93.69;103342.91;5066179;28;20429;-28
2022/03/26 00:43:04;;;;;;;69.20;34.65;;;;;;;5.50;93.54;103352.28;5060942;28;20048;-28
2022/03/26 00:45:31;;;;;;;66.38;33.17;;;;;;;5.49;94.15;103356.97;5064988;28;20045;-30
2022/03/26 00:48:00;;;;;;;67.80;34.42;;;;;;;5.47;94.04;103342.47;5060412;28;20041;-29
2022/03/26 00:50:29;;;;;;;80.63;39.63;;;;;;;5.47;94.18;103347.13;5065889;28;20099;-30
2022/03/26 00:52:57;;;;;;;72.65;35.53;;;;;;;5.44;94.57;103342.88;5060749;28;20040;-29
2022/03/26 00:55:25;;;;;;;73.50;36.35;;;;;;;5.43;94.71;103343.06;5065444;28;20048;-29
2022/03/26 00:57:53;;;;;;;69.00;34.33;;;;;;;5.43;94.96;103340.28;5063328;28;20183;-31
2022/03/26 01:00:21;;;;;;;81.90;38.13;;;;;;;5.41;95.28;103346.03;5062865;28;20045;-28
2022/03/26 01:02:48;;;;;;;69.47;34.00;;;;;;;5.42;95.50;103346.88;5061506;28;20167;-28
2022/03/26 01:05:16;;;;;;;66.85;33.67;;;;;;;5.39;95.59;103350.09;5063204;28;20045;-29
2022/03/26 01:07:46;;;;;;;66.65;32.72;;;;;;;5.39;96.04;103348.19;5059917;28;20099;-29
2022/03/26 01:10:14;;;;;;;68.03;34.67;;;;;;;5.37;96.09;103352.22;5062495;28;20052;-28
2022/03/26 01:12:42;;;;;;;95.68;47.30;;;;;;;5.34;96.18;103347.94;5056768;28;20040;-27
2022/03/26 01:15:10;;;;;;;77.25;38.33;;;;;;;5.33;96.35;103346.22;5069564;28;20159;-28
2022/03/26 01:17:38;;;;;;;81.18;39.13;;;;;;;5.31;96.58;103347.47;5063525;28;20084;-27
2022/03/26 01:20:08;;;;;;;77.05;36.17;;;;;;;5.27;97.04;103346.16;5061839;28;20135;-28
2022/03/26 01:22:36;;;;;;;83.50;40.03;;;;;;;5.25;97.11;103351.03;5065023;28;20066;-28
2022/03/26 01:25:06;;;;;;;73.47;35.47;;;;;;;5.20;97.04;103351.66;5061012;28;20052;-28
2022/03/26 01:27:34;;;;;;;69.78;34.20;;;;;;;5.17;97.30;103344.63;5063682;28;20562;-29
2022/03/26 01:30:01;;;;;;;67.85;32.75;;;;;;;5.18;97.57;103339.94;5060269;28;20131;-29
2022/03/26 01:32:29;;;;;;;62.83;31.05;;;;;;;5.16;97.89;103348.44;5065601;28;20055;-34
2022/03/26 01:34:57;;;;;;;69.82;34.65;;;;;;;5.13;98.27;103337.78;5041594;28;20048;-28
2022/03/26 01:37:25;;;;;;;60.35;30.90;;;;;;;5.12;98.14;103343.53;5065157;28;20091;-29
2022/03/26 01:39:53;;;;;;;57.33;30.20;;;;;;;5.09;98.40;103344.78;5059814;28;20092;-28
2022/03/26 01:42:23;;;;;;;63.45;31.52;;;;;;;5.10;99.01;103342.88;5064298;28;20056;-31
2022/03/26 01:44:50;;;;;;;70.22;34.30;;;;;;;5.10;99.14;103342.88;5060000;28;20072;-34
2022/03/26 01:47:18;;;;;;;78.50;38.17;;;;;;;5.08;99.07;103334.75;5065164;28;20088;-33
2022/03/26 01:49:46;;;;;;;74.03;35.42;;;;;;;5.07;99.43;103330.28;5060719;28;20076;-28
2022/03/26 01:52:14;;;;;;;73.32;35.40;;;;;;;5.07;99.40;103341.34;5063971;28;20224;-28
2022/03/26 01:54:43;;;;;;;76.30;37.15;;;;;;;5.07;99.80;103333.06;5063199;28;20076;-29
2022/03/26 01:57:12;;;;;;;68.05;33.10;;;;;;;5.06;99.83;103333.25;5063796;28;20501;-31
2022/03/26 01:59:42;;;;;;;68.85;32.70;;;;;;;5.06;99.89;103334.09;5062756;28;20077;-29
2022/03/26 02:02:10;;;;;;;79.55;38.83;;;;;;;5.01;100.00;103333.84;5056979;28;20068;-29
2022/03/26 02:04:38;;;;;;;71.18;35.30;;;;;;;5.01;100.00;103335.75;5060134;28;20056;-28
2022/03/26 02:07:06;;;;;;;65.43;33.38;;;;;;;4.99;100.00;103332.38;5058087;28;20055;-29
2022/03/26 02:09:35;;;;;;;67.65;32.90;;;;;;;4.95;100.00;103331.91;5058253;28;20045;-27
2022/03/26 02:12:21;;;;;;;72.55;34.38;;;;;;;4.94;100.00;103330.19;5058686;28;20052;-29
2022/03/26 02:14:51;;;;;;;70.85;34.70;;;;;;;4.92;100.00;103329.53;5060320;28;20071;-29
2022/03/26 02:17:19;;;;;;;63.88;30.98;;;;;;;4.92;100.00;103328.69;5039682;28;20468;-30
2022/03/26 02:19:49;;;;;;;73.38;36.55;;;;;;;4.90;100.00;103328.88;5060071;28;20114;-28
2022/03/26 02:22:18;;;;;;;92.70;46.58;;;;;;;4.88;100.00;103331.00;5062905;28;20148;-29
2022/03/26 02:24:45;;;;;;;79.80;39.97;;;;;;;4.87;100.00;103326.50;5066708;28;20056;-29
2022/03/26 02:27:18;;;;;;;;;;;;;;;4.82;100.00;103327.09;5065185;28;20044;-28
2022/03/26 02:29:46;;;;;;;66.32;31.35;;;;;;;4.78;100.00;103324.97;5068693;28;20003;-29
2022/03/26 02:32:13;;;;;;;72.25;35.33;;;;;;;4.78;100.00;103322.19;5062735;28;20044;-28
2022/03/26 02:34:42;;;;;;;67.38;31.90;;;;;;;4.79;100.00;103323.91;5068408;28;20041;-27
2022/03/26 02:37:28;;;;;;;80.72;37.38;;;;;;;4.74;100.00;103318.13;5063272;28;20121;-28
2022/03/26 02:39:56;;;;;;;70.82;35.38;;;;;;;4.72;100.00;103317.47;5068268;28;20052;-30
2022/03/26 02:42:24;;;;;;;70.75;33.75;;;;;;;4.70;100.00;103314.88;5063020;28;20037;-28
2022/03/26 02:44:52;;;;;;;70.88;35.25;;;;;;;4.69;100.00;103327.00;5067740;28;20455;-29
2022/03/26 02:47:20;;;;;;;74.28;36.38;;;;;;;4.68;100.00;103321.66;5062911;28;20583;-29
2022/03/26 02:49:48;;;;;;;81.20;38.80;;;;;;;4.67;100.00;103320.81;5068199;28;20083;-29
2022/03/26 02:52:16;;;;;;;67.70;34.03;;;;;;;4.66;100.00;103313.56;5062118;28;20053;-27
2022/03/26 02:54:45;;;;;;;72.90;36.58;;;;;;;4.66;100.00;103318.25;5067977;28;20044;-32
2022/03/26 02:57:13;;;;;;;77.07;37.28;;;;;;;4.64;100.00;103320.34;5062597;28;20053;-28
2022/03/26 02:59:41;;;;;;;73.20;36.17;;;;;;;4.61;100.00;103312.44;5067361;28;20076;-29
2022/03/26 03:02:09;;;;;;;70.75;34.60;;;;;;;4.59;100.00;103320.13;5064276;28;20136;-30
2022/03/26 03:04:38;;;;;;;73.97;36.50;;;;;;;4.57;100.00;103308.41;5066762;28;20037;-29
2022/03/26 03:07:06;;;;;;;76.68;37.05;;;;;;;4.57;100.00;103311.16;5065448;28;20128;-28
2022/03/26 03:09:34;;;;;;;70.05;34.15;;;;;;;4.54;100.00;103298.59;5066325;28;20076;-30
2022/03/26 03:12:03;;;;;;;71.00;35.33;;;;;;;4.54;100.00;103306.03;5064881;28;20057;-31
2022/03/26 03:14:31;;;;;;;74.97;37.45;;;;;;;4.52;100.00;103308.13;5066952;28;20076;-33
2022/03/26 03:16:58;;;;;;;75.53;37.28;;;;;;;4.50;100.00;103300.03;5065212;28;20139;-31
2022/03/26 03:19:26;;;;;;;80.90;39.55;;;;;;;4.50;100.00;103305.56;5065498;28;20048;-29
2022/03/26 03:21:54;;;;;;;96.80;47.22;;;;;;;4.50;100.00;103302.81;5066267;28;20102;-28
2022/03/26 03:24:22;;;;;;;89.03;43.17;;;;;;;4.49;100.00;103304.72;5066097;28;20586;-29
2022/03/26 03:26:50;;;;;;;80.80;40.08;;;;;;;4.48;100.00;103305.75;5065713;28;20091;-28
2022/03/26 03:29:19;;;;;;;65.88;32.55;;;;;;;4.46;100.00;103299.56;5064078;28;20048;-28
2022/03/26 03:31:48;;;;;;;75.90;36.80;;;;;;;4.43;100.00;103296.34;5066879;28;20068;-28
2022/03/26 03:34:16;;;;;;;74.03;36.15;;;;;;;4.40;100.00;103294.84;5061517;28;20055;-28
2022/03/26 03:36:44;;;;;;;69.50;33.95;;;;;;;4.37;100.00;103292.50;5067368;28;20155;-28
2022/03/26 03:39:11;;;;;;;91.70;43.50;;;;;;;4.36;100.00;103299.06;5061983;28;20131;-28
2022/03/26 03:41:39;;;;;;;74.22;36.65;;;;;;;4.35;100.00;103289.06;5066494;28;20076;-28
2022/03/26 03:44:10;;;;;;;71.25;33.83;;;;;;;4.35;100.00;103296.50;5061986;28;20049;-28
2022/03/26 03:46:39;;;;;;;84.18;40.95;;;;;;;4.34;100.00;103297.56;5067093;28;20071;-28
2022/03/26 03:49:07;;;;;;;78.45;38.83;;;;;;;4.31;100.00;103297.94;5060813;28;20076;-28
2022/03/26 03:51:34;;;;;;;69.53;33.65;;;;;;;4.29;100.00;103295.38;5067438;28;20554;-29
2022/03/26 03:54:02;;;;;;;74.25;34.67;;;;;;;4.29;100.00;103291.75;5062231;28;20132;-28
2022/03/26 03:56:30;;;;;;;68.80;34.00;;;;;;;4.26;100.00;103289.38;5066350;28;20049;-30
2022/03/26 03:58:58;;;;;;;64.75;31.25;;;;;;;4.25;100.00;103307.03;5064142;28;20073;-29
2022/03/26 04:01:26;;;;;;;87.50;43.25;;;;;;;4.22;100.00;103308.25;5064842;28;20445;-28
2022/03/26 04:03:55;;;;;;;67.75;32.75;;;;;;;4.21;100.00;103292.72;5064716;28;20049;-30
2022/03/26 04:06:23;;;;;;;67.85;33.67;;;;;;;4.20;100.00;103295.72;5065948;28;20084;-28
2022/03/26 04:08:51;;;;;;;67.22;32.63;;;;;;;4.18;100.00;103295.91;5063579;28;20210;-28
2022/03/26 04:11:19;;;;;;;66.38;32.45;;;;;;;4.15;100.00;103299.94;5066043;28;20414;-32
2022/03/26 04:13:49;;;;;;;74.50;34.38;;;;;;;4.13;100.00;103288.22;5064364;28;20080;-28
2022/03/26 04:16:16;;;;;;;77.82;37.08;;;;;;;4.10;100.00;103294.13;5064552;28;20079;-28
2022/03/26 04:18:44;;;;;;;70.47;34.85;;;;;;;4.09;100.00;103286.88;5065294;28;20049;-28
2022/03/26 04:21:13;;;;;;;65.90;32.38;;;;;;;4.09;100.00;103283.28;5064507;28;20087;-29
2022/03/26 04:23:41;;;;;;;66.05;32.35;;;;;;;4.08;100.00;103287.09;5064595;28;20053;-27
2022/03/26 04:26:10;;;;;;;63.53;30.70;;;;;;;4.07;100.00;103285.38;5062403;28;20135;-28
2022/03/26 04:28:38;;;;;;;68.40;33.13;;;;;;;4.05;100.00;103282.81;5066500;28;20160;-29
2022/03/26 04:31:05;;;;;;;64.05;31.45;;;;;;;4.03;100.00;103293.19;5059868;28;20048;-34
2022/03/26 04:33:33;;;;;;;69.07;32.63;;;;;;;4.02;100.00;103293.38;5066193;28;20131;-28
2022/03/26 04:36:02;;;;;;;58.38;29.65;;;;;;;4.00;100.00;103287.19;5059005;28;20482;-27
2022/03/26 04:38:31;;;;;;;58.75;28.58;;;;;;;4.00;100.00;103284.44;5064834;28;20080;-27
2022/03/26 04:40:58;;;;;;;63.40;31.92;;;;;;;3.98;100.00;103292.09;5060480;28;20076;-28
2022/03/26 04:43:26;;;;;;;59.95;28.67;;;;;;;3.97;100.00;103290.38;5064811;28;20505;-29
2022/03/26 04:45:54;;;;;;;62.83;30.63;;;;;;;3.95;100.00;103284.19;5059610;28;20052;-27
2022/03/26 04:48:22;;;;;;;65.25;33.00;;;;;;;3.94;100.00;103288.00;5066105;28;20145;-30
2022/03/26 04:50:50;;;;;;;63.05;30.88;;;;;;;3.91;100.00;103282.88;5061148;28;20040;-28
2022/03/26 04:53:18;;;;;;;86.55;40.83;;;;;;;3.89;100.00;103285.81;5065133;28;20107;-29
2022/03/26 04:55:47;;;;;;;63.28;31.48;;;;;;;3.89;100.00;103282.19;5063735;28;20131;-27
2022/03/26 04:58:15;;;;;;;61.42;28.92;;;;;;;3.87;100.00;103287.91;5063989;28;20048;-29
2022/03/26 05:00:42;;;;;;;61.65;30.15;;;;;;;3.85;100.00;103278.13;5063690;28;20095;-28
2022/03/26 05:03:10;;;;;;;72.03;35.55;;;;;;;3.83;100.00;103281.06;5057604;28;20497;-30
2022/03/26 05:05:38;;;;;;;59.72;30.10;;;;;;;3.82;100.00;103290.41;5059616;28;20055;-28
2022/03/26 05:08:06;;;;;;;63.95;32.13;;;;;;;3.79;100.00;103286.16;5058350;28;20080;-29
2022/03/26 05:10:34;;;;;;;69.95;35.25;;;;;;;3.79;100.00;103288.91;5058436;28;20506;-29
2022/03/26 05:13:03;;;;;;;74.25;35.55;;;;;;;3.79;100.00;103299.09;5057813;28;20056;-29
2022/03/26 05:15:31;;;;;;;63.90;31.05;;;;;;;3.77;100.00;103296.53;5058499;28;20125;-29
2022/03/26 05:17:59;;;;;;;57.30;28.60;;;;;;;3.76;100.00;103299.50;5060394;28;20048;-27
2022/03/26 05:20:28;;;;;;;64.07;30.08;;;;;;;3.75;100.00;103301.41;5056113;28;20040;-27
2022/03/26 05:22:56;;;;;;;61.03;30.40;;;;;;;3.76;100.00;103305.00;5059680;28;20052;-30
2022/03/26 05:25:23;;;;;;;63.03;31.67;;;;;;;3.76;100.00;103302.25;5065109;28;20117;-28
2022/03/26 05:27:53;;;;;;;71.63;33.47;;;;;;;3.75;100.00;103306.06;5058518;28;20041;-28
2022/03/26 05:30:22;;;;;;;83.07;37.53;;;;;;;3.74;100.00;103305.19;5065040;28;20421;-28
2022/03/26 05:32:50;;;;;;;73.13;35.42;;;;;;;3.75;100.00;103303.28;5058520;28;20044;-30
2022/03/26 05:35:18;;;;;;;86.63;40.40;;;;;;;3.74;100.00;103307.97;5064711;28;20505;-28
2022/03/26 05:37:50;;;;;;;60.47;30.52;;;;;;;3.73;100.00;103308.16;5059009;28;20049;-28
2022/03/26 05:40:20;;;;;;;54.40;26.77;;;;;;;3.72;100.00;103307.28;5064034;28;20478;-29
2022/03/26 05:42:49;;;;;;;59.78;29.38;;;;;;;3.73;100.00;103311.78;5059325;28;20494;-30
2022/03/26 05:45:18;;;;;;;65.70;31.55;;;;;;;3.72;100.00;103307.28;5064845;28;20131;-29
2022/03/26 05:47:49;;;;;;;65.95;32.65;;;;;;;3.74;100.00;103315.38;5041322;28;20053;-33
2022/03/26 05:50:17;;;;;;;76.70;35.55;;;;;;;3.74;100.00;103316.25;5064605;28;20179;-29
2022/03/26 05:52:45;;;;;;;65.05;31.90;;;;;;;3.75;100.00;103319.88;5061522;28;20099;-28
2022/03/26 05:55:12;;;;;;;64.72;31.38;;;;;;;3.76;100.00;103327.97;5064854;28;20141;-30
2022/03/26 05:57:40;;;;;;;72.63;33.50;;;;;;;3.77;100.00;103342.63;5065600;28;20106;-34
2022/03/26 06:00:13;;;;;;;76.55;36.00;;;;;;;3.79;100.00;103343.28;5067236;28;20055;-30
2022/03/26 06:02:42;;;;;;;78.80;37.67;;;;;;;3.82;100.00;103340.13;5053945;28;20068;-27
2022/03/26 06:05:11;;;;;;;65.60;32.03;;;;;;;3.85;100.00;103342.50;5050220;28;20447;-27
2022/03/26 06:07:39;;;;;;;64.88;31.50;;;;;;;3.88;100.00;103347.63;5065405;28;20048;-29
2022/03/26 06:10:07;;;;;;;59.20;29.23;;;;;;;3.92;100.00;103351.72;5066178;28;20064;-28
2022/03/26 06:12:39;;;;;;;68.22;32.90;;;;;;;3.96;100.00;103357.72;5062306;28;20052;-26
2022/03/26 06:15:08;;;;;;;69.60;33.33;;;;;;;4.01;100.00;103366.25;5060812;28;20514;-28
2022/03/26 06:17:51;;;;;;;76.82;37.13;;;;;;;4.06;100.00;103372.06;5062481;28;20051;-30
2022/03/26 06:20:20;;;;;;;72.80;34.40;;;;;;;4.13;100.00;103370.25;5061924;28;20132;-28
2022/03/26 06:22:48;;;;;;;87.78;42.17;;;;;;;4.23;100.00;103372.69;5060840;28;20083;-29
2022/03/26 06:25:16;;;;;;;85.10;42.10;;;;;;;4.34;100.00;103367.50;5063155;28;20077;-27
2022/03/26 06:27:43;;;;;;;62.95;31.13;;;;;;;4.44;100.00;103370.78;5060340;28;20049;-29
2022/03/26 06:30:12;;;;;;;74.25;35.38;;;;;;;4.56;100.00;103368.38;5046384;28;20140;-34
2022/03/26 06:32:41;;;;;;;82.80;39.50;;;;;;;4.66;100.00;103362.50;5059870;28;20087;-33
2022/03/26 06:35:09;;;;;;;70.80;35.25;;;;;;;4.75;100.00;103367.72;5064434;28;20131;-34
2022/03/26 06:37:38;;;;;;;88.53;42.45;;;;;;;4.85;100.00;103370.13;5058484;28;20140;-30
2022/03/26 06:40:08;;;;;;;81.90;41.20;;;;;;;4.93;100.00;103378.28;5065278;28;20048;-28
2022/03/26 06:42:35;;;;;;;79.40;38.13;;;;;;;5.03;100.00;103376.00;5060107;28;20136;-28
2022/03/26 06:45:04;;;;;;;92.85;45.30;;;;;;;5.15;100.00;103385.50;5064742;28;20139;-29
2022/03/26 06:47:32;;;;;;;84.82;41.83;;;;;;;5.28;100.00;103389.41;5058919;28;20048;-29
2022/03/26 06:49:59;;;;;;;89.65;44.15;;;;;;;5.43;100.00;103387.38;5065318;28;20145;-32
2022/03/26 06:52:27;;;;;;;97.88;46.92;;;;;;;5.58;100.00;103382.59;5059147;28;20072;-28
2022/03/26 06:54:56;;;;;;;102.55;51.17;;;;;;;5.77;100.00;103370.75;5061839;28;20568;-30
2022/03/26 06:57:24;;;;;;;113.53;53.83;;;;;;;6.12;100.00;103385.41;5046833;28;20041;-29
2022/03/26 06:59:52;;;;;;;104.82;48.85;;;;;;;6.67;100.00;103388.09;5064627;28;20114;-29
2022/03/26 07:02:20;;;;;;;120.97;55.60;;;;;;;7.31;100.00;103395.81;5063571;28;20121;-28
2022/03/26 07:04:48;;;;;;;105.10;48.58;;;;;;;7.87;100.00;103399.75;5061795;28;20174;-29
2022/03/26 07:07:15;;;;;;;117.28;55.45;;;;;;;8.42;100.00;103399.28;5064814;28;20040;-30
2022/03/26 07:09:43;;;;;;;111.85;55.17;;;;;;;9.01;100.00;103398.03;5063624;28;20055;-28
2022/03/26 07:12:13;;;;;;;114.43;56.70;;;;;;;9.60;100.00;103403.03;5064151;28;20040;-30
2022/03/26 07:14:41;;;;;;;110.43;51.78;;;;;;;10.18;100.00;103400.66;5064506;28;20065;-29
2022/03/26 07:17:09;;;;;;;104.78;53.45;;;;;;;10.74;100.00;103405.06;5064456;28;20106;-28
2022/03/26 07:19:37;;;;;;;99.47;49.28;;;;;;;11.33;100.00;103398.47;5063454;28;20113;-28
2022/03/26 07:22:05;;;;;;;89.47;46.55;;;;;;;11.93;100.00;103402.97;5062632;28;20090;-33
2022/03/26 07:24:33;;;;;;;84.10;42.53;;;;;;;12.50;100.00;103398.28;5065408;28;20083;-29
2022/03/26 07:27:01;;;;;;;78.20;40.40;;;;;;;13.04;100.00;103404.31;5060094;28;20068;-28
2022/03/26 07:29:32;;;;;;;81.90;42.33;;;;;;;13.58;98.46;103407.47;5065674;28;20135;-28
2022/03/26 07:32:00;;;;;;;71.80;40.17;;;;;;;14.07;95.54;103403.69;5060129;28;20051;-28
2022/03/26 07:34:28;;;;;;;69.03;36.92;;;;;;;14.55;91.66;103401.19;5065038;28;20565;-29
2022/03/26 07:36:56;;;;;;;67.38;37.47;;;;;;;15.00;87.63;103412.03;5060117;28;20080;-28
2022/03/26 07:39:24;;;;;;;60.72;35.63;;;;;;;15.43;84.11;103411.84;5065457;28;20052;-28
2022/03/26 07:41:51;;;;;;;60.13;35.08;;;;;;;15.84;80.62;103423.41;5059481;28;20582;-33
2022/03/26 07:44:19;;;;;;;56.72;31.92;;;;;;;16.27;77.51;103421.38;5065705;28;20056;-32
2022/03/26 07:46:48;;;;;;;55.65;33.55;;;;;;;16.66;73.97;103424.66;5051709;28;20394;-30
2022/03/26 07:49:16;;;;;;;47.58;28.15;;;;;;;17.03;71.00;103418.78;5058871;28;20083;-30
2022/03/26 07:51:44;;;;;;;51.65;28.88;;;;;;;17.36;67.47;103409.78;5062325;28;20094;-28
2022/03/26 07:54:12;;;;;;;47.78;26.58;;;;;;;17.72;64.53;103421.06;5058983;28;20040;-29
2022/03/26 07:56:39;;;;;;;44.95;24.48;;;;;;;18.07;62.42;103417.28;5059582;28;20131;-30
2022/03/26 07:59:07;;;;;;;40.78;23.58;;;;;;;18.42;60.54;103424.75;5055499;28;20059;-34
2022/03/26 08:01:35;;;;;;;39.67;23.35;;;;;;;18.78;58.36;103422.63;5062578;28;20099;-29
2022/03/26 08:04:05;;;;;;;38.25;22.00;;;;;;;19.15;56.36;103419.25;5064415;28;20048;-29
2022/03/26 08:06:33;;;;;;;45.50;24.55;;;;;;;19.47;54.37;103430.84;5063771;28;20483;-29
2022/03/26 08:09:01;;;;;;;43.90;24.42;;;;;;;19.79;52.95;103432.25;5064059;28;20143;-30
2022/03/26 08:11:29;;;;;;;43.15;25.10;;;;;;;20.08;51.65;103432.22;5064754;28;20041;-30
2022/03/26 08:13:57;;;;;;;43.72;25.33;;;;;;;20.30;50.12;103433.38;5063350;28;20143;-32
2022/03/26 08:16:25;;;;;;;49.80;28.65;;;;;;;20.53;47.94;103439.38;5063791;28;20448;-29
2022/03/26 08:18:53;;;;;;;43.63;26.60;;;;;;;20.66;46.87;103435.75;5061366;28;20158;-29
2022/03/26 08:21:22;;;;;;;42.95;25.38;;;;;;;20.76;46.59;103420.59;5066082;28;20235;-31
2022/03/26 08:23:50;;;;;;;38.45;23.75;;;;;;;21.02;46.37;103426.69;5058742;28;20101;-31
2022/03/26 08:26:22;;;;;;;42.58;25.73;;;;;;;21.29;45.36;103430.56;5065244;28;20128;-30
2022/03/26 08:28:52;;;;;;;47.72;27.25;;;;;;;21.49;43.76;103435.03;5059408;28;20048;-33
2022/03/26 08:31:20;;;;;;;44.50;26.10;;;;;;;21.63;43.23;103432.22;5065592;28;20094;-30
2022/03/26 08:33:48;;;;;;;45.42;26.90;;;;;;;21.86;42.95;103430.38;5060046;28;20417;-31
2022/03/26 08:36:18;;;;;;;43.60;26.00;;;;;;;22.14;42.18;103432.13;5064873;28;20068;-30
2022/03/26 08:38:48;;;;;;;44.83;26.58;;;;;;;22.46;40.92;103436.00;5059868;28;20422;-32
2022/03/26 08:41:20;;;;;;;40.38;23.55;;;;;;;22.73;39.92;103437.97;5065900;28;20048;-31
2022/03/26 08:43:49;;;;;;;38.50;23.67;;;;;;;22.93;39.24;103446.91;5059426;28;20510;-36
2022/03/26 08:46:18;;;;;;;36.72;22.33;;;;;;;23.20;38.69;103439.41;5065599;28;20482;-40
2022/03/26 08:48:47;;;;;;;41.83;24.77;;;;;;;23.41;36.94;103437.72;5060980;28;20049;-29
2022/03/26 08:51:15;;;;;;;38.88;23.20;;;;;;;23.62;36.33;103433.19;5063756;28;20135;-30
2022/03/26 08:53:42;;;;;;;33.38;22.33;;;;;;;23.85;36.04;103433.16;5063123;28;20048;-30
2022/03/26 08:56:12;;;;;;;34.78;21.25;;;;;;;24.08;35.46;103433.94;5064134;28;20062;-30
2022/03/26 08:58:40;;;;;;;39.47;23.02;;;;;;;24.30;35.14;103431.88;5061949;28;20077;-29
2022/03/26 09:01:08;;;;;;;35.15;22.13;;;;;;;24.51;34.83;103440.66;5046931;28;20544;-30
2022/03/26 09:03:38;;;;;;;39.72;24.55;;;;;;;24.71;34.06;103439.19;5062563;28;20516;-29
2022/03/26 09:06:08;;;;;;;36.95;22.77;;;;;;;24.82;34.44;103440.53;5063211;28;20056;-29
2022/03/26 09:08:36;;;;;;;35.10;21.83;;;;;;;25.02;34.57;103442.78;5062846;28;20076;-29
2022/03/26 09:11:04;;;;;;;36.92;22.02;;;;;;;25.25;33.54;103437.72;5062765;28;20054;-29
2022/03/26 09:13:34;;;;;;;28.83;19.17;;;;;;;25.39;34.15;103437.53;5062477;28;20131;-29
2022/03/26 09:16:02;;;;;;;38.97;24.30;;;;;;;25.56;33.31;103434.69;5062432;28;20072;-29
2022/03/26 09:18:30;;;;;;;34.10;22.55;;;;;;;25.72;33.04;103432.97;5062924;28;20052;-31
2022/03/26 09:20:58;;;;;;;34.28;21.92;;;;;;;25.87;32.08;103445.88;5060698;28;20519;-30
2022/03/26 09:23:32;;;;;;;34.05;20.50;;;;;;;25.98;32.34;103435.72;5065248;28;20136;-30
2022/03/26 09:26:04;;;;;;;30.35;19.65;;;;;;;26.13;31.83;103447.81;5058831;28;20121;-29
2022/03/26 09:28:33;;;;;;;33.08;21.60;;;;;;;26.28;31.13;103435.78;5064667;28;20044;-29
2022/03/26 09:31:01;;;;;;;31.63;20.05;;;;;;;26.39;30.60;103435.06;5058766;28;20413;-29
2022/03/26 09:33:29;;;;;;;28.05;19.23;;;;;;;26.53;29.56;103443.41;5063905;28;20040;-30
2022/03/26 09:35:57;;;;;;;28.98;19.05;;;;;;;26.69;28.48;103435.06;5058943;28;20622;-27
2022/03/26 09:38:27;;;;;;;28.65;19.50;;;;;;;26.72;28.08;103434.34;5064957;28;20048;-31
2022/03/26 09:40:55;;;;;;;34.33;21.35;;;;;;;26.78;28.56;103435.81;5058211;28;20036;-30
2022/03/26 09:43:24;;;;;;;30.35;19.20;;;;;;;26.80;27.72;103442.03;5065100;28;20323;-31
2022/03/26 09:45:53;;;;;;;32.20;18.75;;;;;;;26.91;27.58;103442.47;5058732;28;20494;-31
2022/03/26 09:48:21;;;;;;;28.02;18.10;;;;;;;27.01;28.42;103430.59;5063899;28;20148;-33
2022/03/26 09:50:49;;;;;;;28.45;19.17;;;;;;;27.07;27.98;103432.94;5060547;28;20458;-33
2022/03/26 09:53:17;;;;;;;27.23;18.77;;;;;;;27.15;27.71;103431.19;5062576;28;20449;-36
2022/03/26 09:55:45;;;;;;;27.60;19.33;;;;;;;27.27;28.05;103434.09;5044152;28;20521;-30
2022/03/26 09:58:13;;;;;;;30.50;20.98;;;;;;;27.41;27.71;103425.19;5063248;28;20083;-32
2022/03/26 10:00:41;;;;;;;29.42;19.92;;;;;;;27.52;27.97;103426.44;5061178;28;20473;-30
2022/03/26 10:03:10;;;;;;;31.83;22.60;;;;;;;27.61;28.35;103424.31;5056687;28;20512;-31
2022/03/26 10:05:38;;;;;;;28.98;20.75;;;;;;;27.64;28.78;103428.50;5059347;28;20493;-34
2022/03/26 10:08:21;;;;;;;32.80;22.65;;;;;;;27.67;28.54;103420.03;5056721;28;20557;-31
2022/03/26 10:10:52;;;;;;;33.60;23.92;;;;;;;27.71;28.75;103423.88;5062110;28;20044;-40
2022/03/26 10:13:37;;;;;;;28.25;21.27;;;;;;;27.76;28.75;103422.81;5063154;28;20113;-30
2022/03/26 10:16:07;;;;;;;29.10;21.55;;;;;;;27.69;29.61;103423.41;5061011;28;20079;-37
2022/03/26 10:18:38;;;;;;;33.15;23.45;;;;;;;27.53;29.62;103422.38;5063698;28;20045;-32
2022/03/26 10:21:08;;;;;;;29.55;22.35;;;;;;;27.46;29.99;103424.97;5062074;28;20122;-30
2022/03/26 10:23:36;;;;;;;27.00;19.92;;;;;;;27.42;30.01;103421.13;5062637;28;20044;-30
2022/03/26 10:26:06;;;;;;;34.63;24.30;;;;;;;27.45;29.96;103423.28;5058043;28;20056;-36
2022/03/26 10:28:34;;;;;;;30.88;23.00;;;;;;;27.48;30.11;103422.59;5056827;28;20480;-31
2022/03/26 10:34:09;;;;;;;31.60;22.70;;;;;;;27.47;29.44;103420.06;5057000;28;20053;-30
2022/03/26 10:36:39;;;;;;;26.45;19.80;;;;;;;27.45;29.80;103414.69;5060269;28;20136;-36
2022/03/26 10:39:14;;;;;;;26.77;19.85;;;;;;;27.48;29.81;103418.88;5062659;28;20044;-30
2022/03/26 10:41:41;;;;;;;29.65;21.98;;;;;;;27.52;29.92;103420.69;5061791;28;20083;-32
2022/03/26 10:44:12;;;;;;;30.80;21.95;;;;;;;27.59;29.97;103412.34;5060356;28;20106;-31
2022/03/26 10:46:48;;;;;;;34.03;24.70;;;;;;;27.66;29.54;103406.03;5061171;28;20064;-29
2022/03/26 10:49:28;;;;;;;31.45;22.38;;;;;;;27.68;29.28;103410.25;5061297;28;20061;-29
2022/03/26 10:51:56;;;;;;;25.42;19.58;;;;;;;27.67;29.55;103413.47;5061287;28;20136;-29
2022/03/26 10:54:29;;;;;;;26.45;19.50;;;;;;;27.70;29.35;103421.38;5061207;28;20139;-30
2022/03/26 10:56:58;;;;;;;24.33;18.45;;;;;;;27.69;29.68;103413.94;5059834;28;20087;-29
2022/03/26 10:59:27;;;;;;;25.98;18.33;;;;;;;27.63;29.55;103410.47;5062482;28;20076;-30
2022/03/26 11:01:55;;;;;;;31.95;20.73;;;;;;;27.52;29.66;103408.38;5059840;28;20055;-31
2022/03/26 11:04:23;;;;;;;28.40;21.25;;;;;;;27.41;29.40;103420.28;5063245;28;20056;-33
2022/03/26 11:06:52;;;;;;;31.67;24.02;;;;;;;27.37;30.00;103410.72;5054027;28;20483;-37
2022/03/26 11:09:20;;;;;;;28.92;22.17;;;;;;;27.32;30.00;103410.94;5053438;28;20572;-32
2022/03/26 11:11:50;;;;;;;32.50;23.55;;;;;;;27.24;30.15;103419.63;5052503;28;20045;-35
2022/03/26 11:14:23;;;;;;;27.92;21.67;;;;;;;27.24;29.68;103411.00;5053589;28;20076;-29
2022/03/26 11:17:05;;;;;;;24.45;19.80;;;;;;;27.08;30.00;103410.84;5053544;28;20096;-36
2022/03/26 11:19:42;;;;;;;33.55;25.08;;;;;;;26.95;30.06;103409.09;5052855;28;20079;-32